createdAt,value
2018-12-25T00:03:08.433Z,1.86
2018-12-25T00:05:38.027Z,1.87
2018-12-25T00:08:07.751Z,1.80
2018-12-25T00:10:56.398Z,1.89
2018-12-25T00:13:25.920Z,2.02
2018-12-25T00:15:55.510Z,1.92
2018-12-25T00:18:25.076Z,1.99
2018-12-25T00:20:54.661Z,1.92
2018-12-25T00:23:24.241Z,1.95
2018-12-25T00:25:54.427Z,1.89
2018-12-25T00:28:24.089Z,1.92
2018-12-25T00:30:53.733Z,1.91
2018-12-25T00:33:23.407Z,1.98
2018-12-25T00:35:53.022Z,1.91
2018-12-25T00:38:22.795Z,1.96
2018-12-25T00:40:52.428Z,1.94
2018-12-25T00:43:22.055Z,1.95
2018-12-25T00:45:51.764Z,2.09
2018-12-25T00:48:21.460Z,2.02
2018-12-25T00:50:51.078Z,2.02
2018-12-25T00:53:20.744Z,2.01
2018-12-25T00:55:50.464Z,1.94
2018-12-25T00:58:20.033Z,2.04
2018-12-25T01:00:49.691Z,1.98
2018-12-25T01:03:19.355Z,2.02
2018-12-25T01:05:48.939Z,2.02
2018-12-25T01:08:18.543Z,2.01
2018-12-25T01:10:48.138Z,1.95
2018-12-25T01:13:18.139Z,1.97
2018-12-25T01:15:47.837Z,1.89
2018-12-25T01:18:17.482Z,2.01
2018-12-25T01:20:47.263Z,1.90
2018-12-25T01:23:16.926Z,1.96
2018-12-25T01:25:46.497Z,2.06
2018-12-25T01:28:16.109Z,1.98
2018-12-25T01:30:45.697Z,1.99
2018-12-25T01:33:15.359Z,2.07
2018-12-25T01:35:45.030Z,2.03
2018-12-25T01:38:14.612Z,2.17
2018-12-25T01:40:44.212Z,2.07
2018-12-25T01:43:13.809Z,2.13
2018-12-25T01:45:43.373Z,2.06
2018-12-25T01:48:12.914Z,2.07
2018-12-25T01:50:42.877Z,2.10
2018-12-25T01:53:12.446Z,2.09
2018-12-25T01:55:42.032Z,2.04
2018-12-25T01:58:30.478Z,2.10
2018-12-25T02:01:00.085Z,2.11
2018-12-25T02:03:29.665Z,2.04
2018-12-25T02:05:59.289Z,2.11
2018-12-25T02:08:28.866Z,2.10
2018-12-25T02:10:58.436Z,2.21
2018-12-25T02:13:28.044Z,2.19
2018-12-25T02:18:45.987Z,2.24
2018-12-25T02:21:15.903Z,2.22
2018-12-25T02:23:45.528Z,2.23
2018-12-25T02:26:15.069Z,2.27
2018-12-25T02:28:44.663Z,2.31
2018-12-25T02:31:14.428Z,2.33
2018-12-25T02:33:44.281Z,2.26
2018-12-25T02:36:13.928Z,2.23
2018-12-25T02:38:43.534Z,2.29
2018-12-25T02:41:13.238Z,2.31
2018-12-25T02:43:42.845Z,2.35
2018-12-25T02:46:12.443Z,2.29
2018-12-25T02:48:42.018Z,2.39
2018-12-25T02:51:11.617Z,2.27
2018-12-25T02:53:41.181Z,2.31
2018-12-25T02:56:10.819Z,2.27
2018-12-25T02:58:59.591Z,2.32
2018-12-25T03:01:29.513Z,2.38
2018-12-25T03:03:59.062Z,2.36
2018-12-25T03:06:28.638Z,2.38
2018-12-25T03:08:58.130Z,2.35
2018-12-25T03:11:27.752Z,2.45
2018-12-25T03:13:57.338Z,2.32
2018-12-25T03:16:26.923Z,2.36
2018-12-25T03:18:56.563Z,2.34
2018-12-25T03:21:26.137Z,2.45
2018-12-25T03:23:55.748Z,2.40
2018-12-25T03:26:25.290Z,2.42
2018-12-25T03:28:54.959Z,2.37
2018-12-25T03:31:24.723Z,2.38
2018-12-25T03:33:54.869Z,2.38
2018-12-25T03:36:24.642Z,2.26
2018-12-25T03:38:54.437Z,2.39
2018-12-25T03:41:24.141Z,2.38
2018-12-25T03:46:29.339Z,2.38
2018-12-25T03:48:59.124Z,2.41
2018-12-25T03:51:29.091Z,2.50
2018-12-25T03:53:58.660Z,2.43
2018-12-25T03:56:28.212Z,2.43
2018-12-25T03:58:57.835Z,2.40
2018-12-25T04:04:15.835Z,2.45
2018-12-25T04:06:45.482Z,2.50
2018-12-25T04:09:15.203Z,2.51
2018-12-25T04:11:44.763Z,2.46
2018-12-25T04:14:14.302Z,2.47
2018-12-25T04:16:43.909Z,2.54
2018-12-25T04:19:13.457Z,2.61
2018-12-25T04:21:43.050Z,2.48
2018-12-25T04:24:12.979Z,2.46
2018-12-25T04:26:42.539Z,2.54
2018-12-25T04:29:12.161Z,2.51
2018-12-25T04:31:41.760Z,2.56
2018-12-25T04:34:11.382Z,2.56
2018-12-25T04:36:40.957Z,2.46
2018-12-25T04:39:10.598Z,2.52
2018-12-25T04:41:40.186Z,2.47
2018-12-25T04:44:09.751Z,2.53
2018-12-25T04:46:39.446Z,2.64
2018-12-25T04:49:09.004Z,2.52
2018-12-25T04:51:38.609Z,2.55
2018-12-25T04:54:08.158Z,2.56
2018-12-25T04:56:38.032Z,2.51
2018-12-25T05:01:42.819Z,2.57
2018-12-25T05:04:12.434Z,2.63
2018-12-25T05:07:01.028Z,2.69
2018-12-25T05:12:07.275Z,2.72
2018-12-25T05:14:36.898Z,2.62
2018-12-25T05:17:06.458Z,2.69
2018-12-25T05:19:35.993Z,2.65
2018-12-25T05:22:05.934Z,2.70
2018-12-25T05:24:35.640Z,2.62
2018-12-25T05:27:05.501Z,2.63
2018-12-25T05:29:35.245Z,2.68
2018-12-25T05:32:04.981Z,2.65
2018-12-25T05:34:34.665Z,2.64
2018-12-25T05:37:04.261Z,2.65
2018-12-25T05:39:33.998Z,2.74
2018-12-25T05:42:03.789Z,2.63
2018-12-25T05:44:33.600Z,2.64
2018-12-25T05:47:03.579Z,2.68
2018-12-25T05:49:33.273Z,2.63
2018-12-25T05:52:03.051Z,2.63
2018-12-25T05:54:32.771Z,2.64
2018-12-25T05:57:02.491Z,2.73
2018-12-25T05:59:32.109Z,2.63
2018-12-25T06:02:02.339Z,2.64
2018-12-25T06:04:32.078Z,2.72
2018-12-25T06:07:20.907Z,2.66
2018-12-25T06:09:50.855Z,2.68
2018-12-25T06:12:20.630Z,2.66
2018-12-25T06:14:50.310Z,2.66
2018-12-25T06:19:56.911Z,2.67
2018-12-25T06:22:26.617Z,2.75
2018-12-25T06:24:56.427Z,2.69
2018-12-25T06:27:26.150Z,2.76
2018-12-25T06:29:55.969Z,2.73
2018-12-25T06:32:25.826Z,2.74
2018-12-25T06:34:55.734Z,2.74
2018-12-25T06:37:26.005Z,2.67
2018-12-25T06:39:55.761Z,2.68
2018-12-25T06:42:25.607Z,2.70
2018-12-25T06:44:55.433Z,2.70
2018-12-25T06:47:44.107Z,2.76
2018-12-25T06:50:13.885Z,2.71
2018-12-25T06:52:43.656Z,2.70
2018-12-25T06:55:13.415Z,2.73
2018-12-25T06:57:43.112Z,2.74
2018-12-25T07:00:12.910Z,2.69
2018-12-25T07:05:31.306Z,2.68
2018-12-25T07:08:01.114Z,2.73
2018-12-25T07:10:30.817Z,2.71
2018-12-25T07:13:19.380Z,2.71
2018-12-25T07:15:49.131Z,2.71
2018-12-25T07:18:18.824Z,2.64
2018-12-25T07:20:48.674Z,2.74
2018-12-25T07:23:18.269Z,2.76
2018-12-25T07:26:06.885Z,2.73
2018-12-25T07:28:36.707Z,2.73
2018-12-25T07:31:25.146Z,2.78
2018-12-25T07:33:54.792Z,2.76
2018-12-25T07:36:24.680Z,2.81
2018-12-25T07:38:54.484Z,2.76
2018-12-25T07:41:43.374Z,2.75
2018-12-25T07:44:13.260Z,2.78
2018-12-25T07:46:42.992Z,2.80
2018-12-25T07:49:13.249Z,2.81
2018-12-25T07:51:42.982Z,2.82
2018-12-25T07:54:12.752Z,2.82
2018-12-25T07:56:42.602Z,2.82
2018-12-25T07:59:12.468Z,2.81
2018-12-25T08:02:01.041Z,2.81
2018-12-25T08:04:49.519Z,2.85
2018-12-25T08:07:19.014Z,2.97
2018-12-25T08:09:48.668Z,2.90
2018-12-25T08:12:18.233Z,2.93
2018-12-25T08:14:48.150Z,2.91
2018-12-25T08:17:17.755Z,2.97
2018-12-25T08:19:47.309Z,2.96
2018-12-25T08:22:17.055Z,3.07
2018-12-25T08:24:46.610Z,3.07
2018-12-25T08:27:16.259Z,3.02
2018-12-25T08:29:45.837Z,3.03
2018-12-25T08:32:15.434Z,3.07
2018-12-25T08:34:45.091Z,3.12
2018-12-25T08:37:14.976Z,3.13
2018-12-25T08:39:44.885Z,3.09
2018-12-25T08:42:14.446Z,3.10
2018-12-25T08:45:03.194Z,3.13
2018-12-25T08:47:33.144Z,3.18
2018-12-25T08:50:02.740Z,3.19
2018-12-25T08:52:32.488Z,3.15
2018-12-25T08:55:02.098Z,3.17
2018-12-25T08:57:31.764Z,3.16
2018-12-25T09:00:01.318Z,3.21
2018-12-25T09:02:30.967Z,3.21
2018-12-25T09:05:00.558Z,3.24
2018-12-25T09:07:49.221Z,3.30
2018-12-25T09:10:19.048Z,3.23
2018-12-25T09:12:48.806Z,3.25
2018-12-25T09:15:18.649Z,3.29
2018-12-25T09:17:48.240Z,3.37
2018-12-25T09:20:36.709Z,3.39
2018-12-25T09:23:06.428Z,3.25
2018-12-25T09:26:15.464Z,3.25
2018-12-25T09:28:45.221Z,3.16
2018-12-25T09:31:15.013Z,3.20
2018-12-25T09:34:03.437Z,3.27
2018-12-25T09:36:33.029Z,3.33
2018-12-25T09:41:51.362Z,3.40
2018-12-25T09:44:20.971Z,3.47
2018-12-25T09:49:46.124Z,3.64
2018-12-25T09:52:15.685Z,3.49
2018-12-25T09:54:45.231Z,3.51
2018-12-25T10:00:09.113Z,3.57
2018-12-25T10:02:38.644Z,3.62
2018-12-25T10:05:16.029Z,3.72
2018-12-25T10:07:45.624Z,3.69
2018-12-25T10:10:15.262Z,3.57
2018-12-25T10:12:44.824Z,3.81
2018-12-25T10:15:14.432Z,3.74
2018-12-25T10:17:43.947Z,3.80
2018-12-25T10:20:13.575Z,3.77
2018-12-25T10:22:43.561Z,3.77
2018-12-25T10:25:31.944Z,3.71
2018-12-25T10:28:01.634Z,3.73
2018-12-25T10:30:31.250Z,3.83
2018-12-25T10:33:00.805Z,3.79
2018-12-25T10:35:30.374Z,3.84
2018-12-25T10:38:00.028Z,3.88
2018-12-25T10:40:29.560Z,3.85
2018-12-25T10:42:59.200Z,3.83
2018-12-25T10:45:28.790Z,3.86
2018-12-25T10:47:58.560Z,3.89
2018-12-25T10:50:28.220Z,3.95
2018-12-25T10:53:16.699Z,3.96
2018-12-25T10:55:46.287Z,4.04
2018-12-25T10:58:15.912Z,3.93
2018-12-25T11:00:49.405Z,3.96
2018-12-25T11:03:18.949Z,4.00
2018-12-25T11:05:48.553Z,4.06
2018-12-25T11:08:18.125Z,4.01
2018-12-25T11:10:47.751Z,4.02
2018-12-25T11:13:17.331Z,4.06
2018-12-25T11:15:46.914Z,4.07
2018-12-25T11:18:16.499Z,4.09
2018-12-25T11:20:46.177Z,4.10
2018-12-25T11:23:15.804Z,4.08
2018-12-25T11:25:45.433Z,4.13
2018-12-25T11:28:34.209Z,4.18
2018-12-25T11:31:03.806Z,4.11
2018-12-25T11:33:33.500Z,4.16
2018-12-25T11:36:03.099Z,4.16
2018-12-25T11:38:32.621Z,4.12
2018-12-25T11:41:02.601Z,4.21
2018-12-25T11:43:32.188Z,4.16
2018-12-25T11:46:01.791Z,4.15
2018-12-25T11:48:31.329Z,4.20
2018-12-25T11:51:00.936Z,4.13
2018-12-25T11:53:30.523Z,4.13
2018-12-25T11:56:00.114Z,4.19
2018-12-25T11:58:29.840Z,4.26
2018-12-25T12:00:59.437Z,4.23
2018-12-25T12:03:29.256Z,4.35
2018-12-25T12:05:59.134Z,4.19
2018-12-25T12:08:28.688Z,4.19
2018-12-25T12:10:58.651Z,4.27
2018-12-25T12:13:28.275Z,4.22
2018-12-25T12:15:57.885Z,4.25
2018-12-25T12:18:27.590Z,4.19
2018-12-25T12:20:57.252Z,4.25
2018-12-25T12:23:26.913Z,4.25
2018-12-25T12:25:56.546Z,4.29
2018-12-25T12:28:26.249Z,4.35
2018-12-25T12:30:55.870Z,4.27
2018-12-25T12:33:25.476Z,4.30
2018-12-25T12:35:55.189Z,4.37
2018-12-25T12:38:24.897Z,4.36
2018-12-25T12:40:54.497Z,4.21
2018-12-25T12:43:24.096Z,4.22
2018-12-25T12:45:53.746Z,4.23
2018-12-25T12:48:23.346Z,4.22
2018-12-25T12:50:52.956Z,4.28
2018-12-25T12:53:22.869Z,4.26
2018-12-25T12:55:52.481Z,4.26
2018-12-25T12:58:22.119Z,4.36
2018-12-25T13:00:51.678Z,4.42
2018-12-25T13:03:21.252Z,4.25
2018-12-25T13:05:51.352Z,4.31
2018-12-25T13:08:20.962Z,4.27
2018-12-25T13:10:50.861Z,4.28
2018-12-25T13:13:20.442Z,4.27
2018-12-25T13:15:50.420Z,4.27
2018-12-25T13:18:20.030Z,4.34
2018-12-25T13:20:49.970Z,4.34
2018-12-25T13:23:19.651Z,4.28
2018-12-25T13:25:49.592Z,4.37
2018-12-25T13:28:19.172Z,4.32
2018-12-25T13:30:48.771Z,4.35
2018-12-25T13:33:18.793Z,4.37
2018-12-25T13:35:48.411Z,4.28
2018-12-25T13:38:18.047Z,4.37
2018-12-25T13:40:47.700Z,4.42
2018-12-25T13:43:17.259Z,4.36
2018-12-25T13:45:46.862Z,4.34
2018-12-25T13:48:16.865Z,4.45
2018-12-25T13:50:46.472Z,4.40
2018-12-25T13:53:16.067Z,4.35
2018-12-25T13:55:45.629Z,4.35
2018-12-25T13:58:15.237Z,4.44
2018-12-25T14:00:44.883Z,4.41
2018-12-25T14:03:33.446Z,4.51
2018-12-25T14:06:02.993Z,4.46
2018-12-25T14:08:32.616Z,4.38
2018-12-25T14:11:02.220Z,4.42
2018-12-25T14:13:31.816Z,4.45
2018-12-25T14:16:01.430Z,4.44
2018-12-25T14:18:31.036Z,4.42
2018-12-25T14:23:49.171Z,4.36
2018-12-25T14:26:18.731Z,4.47
2018-12-25T14:28:48.291Z,4.33
2018-12-25T14:31:17.828Z,4.33
2018-12-25T14:33:47.412Z,4.32
2018-12-25T14:36:16.970Z,4.29
2018-12-25T14:38:58.010Z,4.36
2018-12-25T14:41:27.601Z,4.36
2018-12-25T14:44:04.951Z,4.35
2018-12-25T14:46:28.902Z,4.35
2018-12-25T14:49:18.321Z,4.31
2018-12-25T14:52:07.827Z,4.36
2018-12-25T14:54:37.634Z,4.29
2018-12-25T14:57:07.163Z,4.29
2018-12-25T14:59:36.725Z,4.24
2018-12-25T15:02:06.562Z,4.23
2018-12-25T15:04:36.171Z,4.21
2018-12-25T15:07:05.714Z,4.17
2018-12-25T15:09:35.312Z,4.18
2018-12-25T15:12:05.353Z,4.19
2018-12-25T15:14:35.012Z,4.17
2018-12-25T15:17:04.654Z,4.26
2018-12-25T15:19:34.250Z,4.27
2018-12-25T15:22:03.925Z,4.28
2018-12-25T15:24:33.554Z,4.23
2018-12-25T15:27:03.133Z,4.27
2018-12-25T15:29:32.733Z,4.28
2018-12-25T15:32:02.461Z,4.33
2018-12-25T15:34:32.089Z,4.35
2018-12-25T15:37:02.816Z,4.31
2018-12-25T15:39:33.211Z,4.20
2018-12-25T15:42:02.832Z,4.23
2018-12-25T15:44:32.393Z,4.26
2018-12-25T15:47:02.007Z,4.27
2018-12-25T15:49:31.608Z,4.25
2018-12-25T15:52:01.181Z,4.22
2018-12-25T15:54:30.767Z,4.21
2018-12-25T15:57:02.199Z,4.23
2018-12-25T15:59:31.799Z,4.29
2018-12-25T16:02:01.493Z,4.34
2018-12-25T16:04:31.093Z,4.29
2018-12-25T16:07:00.654Z,4.31
2018-12-25T16:09:30.227Z,4.28
2018-12-25T16:11:59.804Z,4.25
2018-12-25T16:14:29.375Z,4.23
2018-12-25T16:16:59.015Z,4.33
2018-12-25T16:19:28.660Z,4.32
2018-12-25T16:21:58.312Z,4.28
2018-12-25T16:24:27.964Z,4.32
2018-12-25T16:26:57.596Z,4.31
2018-12-25T16:29:27.254Z,4.31
2018-12-25T16:34:45.707Z,4.28
2018-12-25T16:37:15.277Z,4.28
2018-12-25T16:39:44.875Z,4.33
2018-12-25T16:42:14.477Z,4.34
2018-12-25T16:44:44.055Z,4.37
2018-12-25T16:47:13.599Z,4.34
2018-12-25T16:49:43.186Z,4.31
2018-12-25T16:52:12.833Z,4.35
2018-12-25T16:54:42.517Z,4.25
2018-12-25T16:57:31.444Z,4.33
2018-12-25T17:00:20.075Z,4.27
2018-12-25T17:02:49.826Z,4.28
2018-12-25T17:05:19.407Z,4.28
2018-12-25T17:08:07.995Z,4.28
2018-12-25T17:10:37.862Z,4.32
2018-12-25T17:13:07.451Z,4.31
2018-12-25T17:15:37.179Z,4.27
2018-12-25T17:18:06.797Z,4.28
2018-12-25T17:20:36.365Z,4.23
2018-12-25T17:23:05.954Z,4.32
2018-12-25T17:25:35.504Z,4.27
2018-12-25T17:28:05.108Z,4.29
2018-12-25T17:30:34.652Z,4.33
2018-12-25T17:33:04.301Z,4.31
2018-12-25T17:35:52.870Z,4.35
2018-12-25T17:38:22.503Z,4.32
2018-12-25T17:40:52.430Z,4.34
2018-12-25T17:43:22.519Z,4.29
2018-12-25T17:45:52.091Z,4.37
2018-12-25T17:48:21.691Z,4.33
2018-12-25T17:50:51.296Z,4.49
2018-12-25T17:53:20.905Z,4.45
2018-12-25T17:55:50.612Z,4.45
2018-12-25T17:58:20.482Z,4.41
2018-12-25T18:00:50.063Z,4.40
2018-12-25T18:03:19.681Z,4.33
2018-12-25T18:05:49.409Z,4.31
2018-12-25T18:08:18.974Z,4.29
2018-12-25T18:10:48.463Z,4.34
2018-12-25T18:13:18.100Z,4.33
2018-12-25T18:15:47.744Z,4.36
2018-12-25T18:18:36.293Z,4.34
2018-12-25T18:21:24.716Z,4.34
2018-12-25T18:23:54.346Z,4.40
2018-12-25T18:26:23.926Z,4.30
2018-12-25T18:28:53.516Z,4.27
2018-12-25T18:31:23.321Z,4.33
2018-12-25T18:33:53.250Z,4.29
2018-12-25T18:36:23.007Z,4.31
2018-12-25T18:38:52.591Z,4.31
2018-12-25T18:41:22.635Z,4.31
2018-12-25T18:43:52.332Z,4.36
2018-12-25T18:46:22.099Z,4.33
2018-12-25T18:49:10.725Z,4.28
2018-12-25T18:51:40.321Z,4.26
2018-12-25T18:54:10.158Z,4.30
2018-12-25T18:56:39.787Z,4.26
2018-12-25T18:59:09.493Z,4.28
2018-12-25T19:01:39.220Z,4.31
2018-12-25T19:04:08.844Z,4.27
2018-12-25T19:06:38.495Z,4.37
2018-12-25T19:09:08.682Z,4.35
2018-12-25T19:11:40.149Z,4.37
2018-12-25T19:14:28.694Z,4.39
2018-12-25T19:16:58.387Z,4.26
2018-12-25T19:19:46.960Z,4.25
2018-12-25T19:24:54.005Z,4.32
2018-12-25T19:27:23.594Z,4.28
2018-12-25T19:29:53.248Z,4.28
2018-12-25T19:32:22.968Z,4.36
2018-12-25T19:34:52.544Z,4.23
2018-12-25T19:37:41.537Z,4.17
2018-12-25T19:40:11.361Z,4.26
2018-12-25T19:42:43.682Z,4.21
2018-12-25T19:45:13.399Z,4.25
2018-12-25T19:47:43.030Z,4.19
2018-12-25T19:50:12.845Z,4.20
2018-12-25T19:52:42.415Z,4.21
2018-12-25T19:55:12.145Z,4.15
2018-12-25T19:57:41.862Z,4.20
2018-12-25T20:00:13.280Z,4.22
2018-12-25T20:02:43.717Z,4.18
2018-12-25T20:05:51.354Z,4.15
2018-12-25T20:08:58.831Z,4.23
2018-12-25T20:12:06.680Z,4.12
2018-12-25T20:15:14.248Z,4.17
2018-12-25T20:18:21.772Z,4.11
2018-12-25T20:21:20.180Z,4.20
2018-12-25T20:24:27.765Z,4.08
2018-12-25T20:27:28.387Z,4.13
2018-12-25T20:30:35.969Z,4.08
2018-12-25T20:33:43.569Z,4.10
2018-12-25T20:36:51.250Z,4.08
2018-12-25T20:39:58.722Z,4.05
2018-12-25T20:43:06.248Z,4.05
2018-12-25T20:46:13.723Z,3.99
2018-12-25T20:49:32.801Z,4.11
2018-12-25T20:52:40.888Z,4.00
2018-12-25T20:55:48.456Z,4.03
2018-12-25T20:58:56.000Z,4.03
2018-12-25T21:02:03.425Z,4.01
2018-12-25T21:05:11.144Z,3.93
2018-12-25T21:11:42.769Z,3.97
2018-12-25T21:14:50.774Z,4.01
2018-12-25T21:17:58.266Z,3.98
2018-12-25T21:21:20.546Z,3.95
2018-12-25T21:24:15.798Z,3.91
2018-12-25T21:27:23.341Z,3.97
2018-12-25T21:30:12.057Z,4.02
2018-12-25T21:32:43.428Z,3.98
2018-12-25T21:35:16.784Z,3.90
2018-12-25T21:38:25.604Z,3.93
2018-12-25T21:41:34.404Z,3.97
2018-12-25T21:44:43.202Z,3.93
2018-12-25T21:47:12.920Z,3.99
2018-12-25T21:50:23.798Z,3.87
2018-12-25T21:53:13.032Z,3.87
2018-12-25T21:55:42.897Z,3.85
2018-12-25T21:58:12.665Z,3.84
2018-12-25T22:03:50.973Z,3.81
2018-12-25T22:06:20.926Z,3.88
2018-12-25T22:11:41.566Z,3.81
2018-12-25T22:14:30.415Z,3.82
2018-12-25T22:17:19.170Z,3.78
2018-12-25T22:19:49.233Z,3.78
2018-12-25T22:22:19.218Z,3.83
2018-12-25T22:24:48.815Z,3.78
2018-12-25T22:27:18.459Z,3.74
2018-12-25T22:29:48.412Z,3.73
2018-12-25T22:32:17.957Z,3.72
2018-12-25T22:34:47.498Z,3.78
2018-12-25T22:37:17.746Z,3.74
2018-12-25T22:39:47.756Z,3.73
2018-12-25T22:42:17.331Z,3.79
2018-12-25T22:45:26.172Z,3.78
2018-12-25T22:51:06.252Z,3.80
2018-12-25T22:56:46.088Z,3.81
2018-12-25T22:59:15.657Z,3.71
2018-12-25T23:01:45.251Z,3.69
2018-12-25T23:04:14.813Z,3.66
2018-12-25T23:06:44.394Z,3.71
2018-12-25T23:09:16.650Z,3.69
2018-12-25T23:11:46.240Z,3.70
2018-12-25T23:14:15.780Z,3.67
2018-12-25T23:16:45.310Z,3.66
2018-12-25T23:19:15.084Z,3.60
2018-12-25T23:24:19.313Z,3.62
2018-12-25T23:29:23.376Z,3.62
2018-12-25T23:31:53.106Z,3.58
2018-12-25T23:34:22.619Z,3.70
2018-12-25T23:39:40.798Z,3.57
2018-12-25T23:42:10.365Z,3.62
2018-12-25T23:44:40.036Z,3.56
2018-12-25T23:47:28.568Z,3.48
2018-12-25T23:49:58.174Z,3.61
2018-12-25T23:52:27.905Z,3.51
2018-12-25T23:54:58.939Z,3.47
2018-12-25T23:57:29.218Z,3.52
2018-12-25T23:59:58.917Z,3.48
